Oceana NAS, VA

3:41 AM EDT on March 27, 2017 (GMT -0400)
Oceana Naval Air Station

Weather History for KNTU - April, 2014

Change the Weather History Date:

Tuesday, April 15, 2014

  Actual Average Record
Temperature  
Mean Temperature 59 °F -  
Max Temperature 75 °F 66 °F 86 °F (2006)
Min Temperature 43 °F 46 °F 37 °F (1997)
Degree Days  
Heating Degree Days 6    
Growing Degree Days 9 (Base 50)    
Moisture  
Dew Point 59 °F    
Average Humidity 84    
Maximum Humidity 93    
Minimum Humidity 57    
Precipitation  
Precipitation 1.43 in - - ()
Sea Level Pressure  
Sea Level Pressure 29.76 in    
Wind  
Wind Speed 16 mph (SSW)    
Max Wind Speed 39 mph    
Max Gust Speed 58 mph    
Visibility 6 miles    
Events Rain    
Averages and records for this station are not official NWS values.
T = Trace of Precipitation, MM = Missing Value Source: NWS Daily Summary

Daily Weather History Graph

Daily Weather History Graph

Search for Another Location

Airport or City:

Trip Planner

Search our weather history database for the weather conditions in past years. The results will help you decide how hot, cold, wet, or windy it might be!

Date:

Astronomy

Apr. 15, 2014 Rise Set
Actual Time 6:30 AM EDT 7:38 PM EDT
Civil Twilight 6:03 AM EDT 8:05 PM EDT
Nautical Twilight 5:31 AM EDT 8:37 PM EDT
Astronomical Twilight 4:58 AM EDT 9:10 PM EDT
Moon 8:16 PM EDT (4/15) 6:36 AM EDT (4/15)
Length of Visible Light 14h 02m
Length of Day
13h 08m
Full, 100% of the Moon is Illuminated
Apr 15
Full
Apr 22
Last Quarter
Apr 29
New
May 6
First Quarter
May 14
Full

Hourly Weather History & Observations

Time (EDT) Temp. Windchill Dew Point Humidity Pressure Visibility Wind Dir Wind Speed Gust Speed Precip Events Conditions
12:39 AM 68.0 °F - 63.0 °F 84% 29.89 in 10.0 mi SSE 9.2 mph - N/A   Overcast
12:56 AM 66.9 °F - 63.0 °F 87% 29.89 in 10.0 mi SSE 8.1 mph - N/A   Mostly Cloudy
1:56 AM 70.0 °F - 64.0 °F 81% 29.85 in 10.0 mi SSE 19.6 mph 28.8 mph N/A   Mostly Cloudy
2:27 AM 70.0 °F - 64.9 °F 84% 29.85 in 10.0 mi South 16.1 mph 25.3 mph 0.00 in Rain Light Rain
2:56 AM 69.1 °F - 64.9 °F 87% 29.86 in 10.0 mi South 13.8 mph - 0.00 in Rain Light Rain
3:19 AM 69.1 °F - 64.9 °F 87% 29.84 in 7.0 mi SSW 17.3 mph 23.0 mph 0.00 in Rain Light Rain
3:38 AM 68.0 °F - 64.9 °F 90% 29.83 in 10.0 mi South 11.5 mph 20.7 mph 0.01 in   Overcast
3:56 AM 68.0 °F - 64.9 °F 90% 29.83 in 10.0 mi South 13.8 mph - 0.01 in   Mostly Cloudy
4:56 AM 69.1 °F - 64.9 °F 87% 29.81 in 10.0 mi South 13.8 mph 20.7 mph N/A   Mostly Cloudy
5:23 AM 69.1 °F - 64.9 °F 87% 29.79 in 4.0 mi South 9.2 mph 20.7 mph 0.01 in Rain Light Rain
5:56 AM 69.1 °F - 66.0 °F 90% 29.79 in 10.0 mi South 12.7 mph 19.6 mph 0.01 in Rain Light Rain
6:21 AM 69.1 °F - 66.0 °F 90% 29.78 in 10.0 mi South 9.2 mph 21.9 mph 0.00 in   Overcast
6:30 AM 69.1 °F - 66.0 °F 90% 29.77 in 6.0 mi South 9.2 mph 20.7 mph 0.00 in Rain Light Rain
6:56 AM 69.1 °F - 66.0 °F 90% 29.78 in 6.0 mi South 11.5 mph 20.7 mph 0.00 in Rain Light Rain
7:38 AM 70.0 °F - 66.0 °F 87% 29.77 in 6.0 mi South 15.0 mph 20.7 mph 0.00 in   Overcast
7:56 AM 70.0 °F - 66.0 °F 87% 29.77 in 6.0 mi South 15.0 mph 23.0 mph 0.00 in   Overcast
8:56 AM 71.1 °F - 66.0 °F 84% 29.75 in 6.0 mi South 17.3 mph 31.1 mph N/A   Overcast
9:26 AM 72.0 °F - 66.0 °F 81% 29.74 in 6.0 mi South 13.8 mph 26.5 mph 0.00 in Rain Light Rain
9:40 AM 72.0 °F - 66.0 °F 81% 29.73 in 6.0 mi South 21.9 mph 32.2 mph 0.00 in   Overcast
9:56 AM 72.0 °F - 66.0 °F 81% 29.74 in 6.0 mi South 17.3 mph 26.5 mph 0.00 in Rain Light Rain
10:18 AM 72.0 °F - 66.0 °F 81% 29.73 in 6.0 mi South 17.3 mph 24.2 mph 0.00 in   Overcast
10:33 AM 72.0 °F - 66.0 °F 81% 29.73 in 6.0 mi South 17.3 mph 23.0 mph 0.00 in   Overcast
10:42 AM 72.0 °F - 66.0 °F 81% 29.73 in 4.0 mi South 20.7 mph 29.9 mph 0.00 in Rain Light Rain
10:56 AM 71.1 °F - 66.9 °F 87% 29.75 in 3.0 mi South 17.3 mph 33.4 mph 0.04 in Rain Light Rain
11:02 AM 71.1 °F - 66.9 °F 87% 29.74 in 3.0 mi SSW 15.0 mph 25.3 mph 0.01 in Rain Light Rain
11:26 AM 71.1 °F - 66.9 °F 87% 29.74 in 2.0 mi SSW 16.1 mph 23.0 mph 0.11 in Rain Light Rain
11:32 AM 68.0 °F - 64.9 °F 90% 29.75 in 0.8 mi WSW 18.4 mph 26.5 mph 0.18 in Rain Heavy Rain
11:42 AM 66.0 °F - 62.1 °F 87% 29.75 in 0.8 mi WSW 18.4 mph - 0.25 in Rain Heavy Rain
11:56 AM 64.9 °F - 62.1 °F 90% 29.74 in 1.0 mi WSW 11.5 mph 23.0 mph 0.53 in Rain Rain
12:07 PM 64.9 °F - 63.0 °F 93% 29.72 in 3.0 mi SW 9.2 mph - 0.02 in Rain Light Rain
12:28 PM 66.9 °F - 63.0 °F 87% 29.71 in 7.0 mi South 5.8 mph - 0.03 in   Overcast
12:50 PM 68.0 °F - 64.4 °F 88% 29.71 in 7.0 mi South 8.1 mph - 0.03 in   Overcast
12:56 PM 66.9 °F - 64.0 °F 90% 29.72 in 7.0 mi South 5.8 mph - 0.03 in   Overcast
1:31 PM 69.1 °F - 64.9 °F 87% 29.69 in 10.0 mi South 8.1 mph - N/A   Overcast
1:56 PM 71.1 °F - 66.9 °F 87% 29.70 in 10.0 mi South 6.9 mph - N/A   Overcast
2:25 PM 73.9 °F - 68.0 °F 82% 29.68 in 10.0 mi South 11.5 mph - N/A   Overcast
2:56 PM 75.9 °F - 66.9 °F 74% 29.67 in 10.0 mi SSW 12.7 mph - N/A   Overcast
3:34 PM 75.0 °F - 64.9 °F 71% 29.64 in 10.0 mi SSW 16.1 mph 21.9 mph 0.00 in Rain Light Rain
3:56 PM 75.0 °F - 66.0 °F 73% 29.64 in 10.0 mi South 13.8 mph 20.7 mph 0.00 in Rain Light Rain
4:07 PM 75.0 °F - 64.9 °F 71% 29.63 in 10.0 mi South 15.0 mph - 0.00 in   Overcast
4:56 PM 73.9 °F - 64.9 °F 73% 29.62 in 10.0 mi South 16.1 mph 24.2 mph 0.00 in   Overcast
5:56 PM 73.0 °F - 62.1 °F 68% 29.62 in 10.0 mi SSW 17.3 mph 29.9 mph N/A   Overcast
6:16 PM 73.0 °F - 61.0 °F 66% 29.62 in 10.0 mi South 20.7 mph 28.8 mph 0.00 in Rain Light Rain
6:28 PM 72.0 °F - 61.0 °F 68% 29.62 in 10.0 mi South 19.6 mph 31.1 mph 0.00 in   Overcast
6:56 PM 72.0 °F - 62.1 °F 71% 29.63 in 10.0 mi SSW 19.6 mph 28.8 mph 0.00 in   Overcast
7:56 PM 71.1 °F - 55.0 °F 57% 29.71 in 10.0 mi North 21.9 mph 34.5 mph N/A   Squalls
8:04 PM 51.1 °F - 45.0 °F 80% 29.71 in 9.0 mi North 39.1 mph 51.8 mph N/A   Overcast
8:12 PM 48.9 °F - 44.1 °F 83% 29.74 in 2.5 mi NNW 35.7 mph 51.8 mph 0.06 in Rain Heavy Rain
8:18 PM 48.0 °F - 44.1 °F 86% 29.72 in 1.2 mi North 33.4 mph 57.5 mph 0.13 in Rain Heavy Rain
8:25 PM 46.9 °F - 44.1 °F 90% 29.74 in 1.5 mi North 33.4 mph 57.5 mph 0.18 in Rain Heavy Rain
8:31 PM 46.9 °F - 44.1 °F 90% 29.78 in 2.0 mi NNW 27.6 mph 43.7 mph 0.19 in Rain Heavy Rain
8:56 PM 46.0 °F 38.0 °F 44.1 °F 93% 29.79 in 3.0 mi North 21.9 mph 40.3 mph 0.32 in Rain Light Rain
9:01 PM 46.0 °F 36.9 °F 44.1 °F 93% 29.79 in 2.5 mi North 28.8 mph 39.1 mph 0.04 in Rain Heavy Rain
9:13 PM 46.0 °F 37.4 °F 44.1 °F 93% 29.81 in 3.0 mi NNW 25.3 mph 31.1 mph 0.07 in Rain Rain
9:27 PM 46.0 °F 37.4 °F 44.1 °F 93% 29.81 in 5.0 mi North 25.3 mph 41.4 mph 0.08 in Rain Light Rain
9:44 PM 46.0 °F 37.0 °F 42.1 °F 86% 29.83 in 4.0 mi North 27.6 mph 38.0 mph 0.10 in Rain Light Rain
9:56 PM 46.0 °F 36.7 °F 42.1 °F 86% 29.84 in 5.0 mi North 29.9 mph 41.4 mph 0.10 in Rain Light Rain
10:21 PM 45.0 °F 35.4 °F 41.0 °F 86% 29.85 in 2.5 mi North 28.8 mph 42.6 mph 0.06 in Rain Rain
10:29 PM 45.0 °F 36.2 °F 41.0 °F 86% 29.86 in 3.0 mi North 24.2 mph 43.7 mph 0.08 in Rain Rain
10:56 PM 44.1 °F 33.2 °F 39.9 °F 85% 29.88 in 3.0 mi NNW 35.7 mph 47.2 mph 0.16 in Rain Rain
11:12 PM 43.0 °F 32.9 °F 39.9 °F 89% 29.92 in 3.0 mi NNW 27.6 mph 33.4 mph 0.07 in Rain Heavy Rain
11:56 PM 43.0 °F 32.4 °F 39.0 °F 86% 29.95 in 4.0 mi NNW 31.1 mph 38.0 mph 0.23 in Rain Rain